Time;durP1;ratioP1;P1;durP2;ratioP2;P2;SDS_P1;SDS_P2;PMS_P1;PMS_P2;Temp;Humidity;BMP_temperature;BMP_pressure;BME280_temperature;BME280_humidity;BME280_pressure;Samples;Min_cycle;Max_cycle;Signal;HPM_P1;HPM_P2
2022/07/24 00:02:16;;;;;;;;;10.00;10.00;;;;;24.66;52.07;101713.66;5078885;27;48462;-70
2022/07/24 00:04:42;;;;;;;;;12.00;11.00;;;;;24.61;51.71;101714.94;5097385;27;45429;-70
2022/07/24 00:07:07;;;;;;;;;10.67;8.33;;;;;24.57;52.28;101716.19;5097335;27;45486;-70
2022/07/24 00:09:32;;;;;;;;;13.33;11.00;;;;;24.61;52.10;101723.09;5096585;27;45588;-70
2022/07/24 00:11:58;;;;;;;;;9.33;9.33;;;;;24.59;51.66;101722.38;5097203;27;45675;-70
2022/07/24 00:14:24;;;;;;;;;11.33;9.00;;;;;24.55;52.46;101725.50;5095021;27;45390;-69
2022/07/24 00:16:49;;;;;;;;;11.67;10.33;;;;;24.47;52.56;101715.28;5097019;27;45420;-70
2022/07/24 00:19:15;;;;;;;;;7.33;6.33;;;;;24.50;52.70;101719.59;5096875;27;45557;-70
2022/07/24 00:21:41;;;;;;;;;11.00;10.00;;;;;24.47;52.42;101723.44;5096934;27;46231;-70
2022/07/24 00:24:07;;;;;;;;;17.33;9.00;;;;;24.44;52.61;101715.50;5095050;27;45534;-70
2022/07/24 00:26:34;;;;;;;;;7.67;7.67;;;;;24.43;52.65;101722.81;5097687;27;45415;-70
2022/07/24 00:29:00;;;;;;;;;13.33;10.00;;;;;24.41;52.48;101713.91;5094675;27;45370;-70
2022/07/24 00:31:25;;;;;;;;;12.67;11.67;;;;;24.40;52.49;101703.16;5096898;27;46049;-70
2022/07/24 00:33:51;;;;;;;;;8.33;8.33;;;;;24.34;52.47;101687.31;5097181;27;45377;-69
2022/07/24 00:36:16;;;;;;;;;14.67;13.00;;;;;24.38;52.25;101689.66;5096450;27;45612;-70
2022/07/24 00:38:42;;;;;;;;;10.00;10.00;;;;;24.39;52.74;101688.63;5093887;27;45604;-70
2022/07/24 00:41:07;;;;;;;;;8.33;8.33;;;;;24.39;51.95;101679.59;5095979;27;46414;-70
2022/07/24 00:43:33;;;;;;;;;9.00;9.00;;;;;24.34;52.60;101666.38;5094772;27;45405;-70
2022/07/24 00:45:58;;;;;;;;;9.67;9.67;;;;;24.34;52.18;101665.53;5096690;27;45462;-70
2022/07/24 00:48:24;;;;;;;;;11.33;11.00;;;;;24.34;52.08;101670.97;5095121;27;45543;-70
2022/07/24 00:50:49;;;;;;;;;11.33;8.33;;;;;24.38;52.05;101678.75;5095716;27;48103;-70
2022/07/24 00:53:15;;;;;;;;;10.67;9.67;;;;;24.31;51.84;101663.94;5089560;27;45551;-70
2022/07/24 00:55:42;;;;;;;;;11.00;10.33;;;;;24.30;52.19;101664.91;5106087;27;45556;-70
2022/07/24 00:58:07;;;;;;;;;10.67;9.33;;;;;24.28;51.85;101657.88;5092454;27;45609;-70
2022/07/24 01:00:34;;;;;;;;;8.67;7.00;;;;;24.28;51.61;101649.69;5084718;27;46283;-69
2022/07/24 01:02:59;;;;;;;;;8.00;8.00;;;;;24.33;51.67;101661.94;5077971;27;45445;-70
2022/07/24 01:05:25;;;;;;;;;16.33;10.00;;;;;24.25;51.45;101655.44;5096562;27;45491;-70
2022/07/24 01:07:50;;;;;;;;;10.33;10.33;;;;;24.34;51.84;101662.78;5100162;27;45378;-70
2022/07/24 01:10:16;;;;;;;;;7.00;7.00;;;;;24.32;51.88;101668.38;5100632;27;45423;-70
2022/07/24 01:12:41;;;;;;;;;11.00;9.33;;;;;24.32;51.76;101668.38;5078102;27;45832;-70
2022/07/24 01:15:09;;;;;;;;;11.67;10.00;;;;;24.31;51.92;101671.25;5093966;27;45947;-69
2022/07/24 01:17:36;;;;;;;;;9.00;9.00;;;;;24.29;52.07;101678.69;5094932;27;45418;-70
2022/07/24 01:20:04;;;;;;;;;9.67;9.67;;;;;24.28;51.61;101677.84;5074469;27;47749;-70
2022/07/24 01:22:30;;;;;;;;;13.33;8.33;;;;;24.26;51.64;101676.25;5094483;27;45695;-70
2022/07/24 01:24:55;;;;;;;;;6.33;6.33;;;;;24.23;51.60;101669.16;5083761;27;45450;-70
2022/07/24 01:27:22;;;;;;;;;9.00;9.00;;;;;24.21;52.09;101669.31;5104616;27;45613;-69
2022/07/24 01:29:48;;;;;;;;;9.00;7.33;;;;;24.17;51.73;101670.59;5094160;27;46280;-70
2022/07/24 01:32:13;;;;;;;;;10.33;9.33;;;;;24.18;52.56;101669.56;5077223;27;46583;-70
2022/07/24 01:34:39;;;;;;;;;8.00;7.33;;;;;24.13;52.14;101666.38;5081974;27;45439;-70
2022/07/24 01:37:04;;;;;;;;;10.33;8.67;;;;;24.14;52.10;101673.59;5074330;27;45486;-70
2022/07/24 01:39:29;;;;;;;;;11.67;9.33;;;;;24.05;52.75;101657.19;5089639;27;47392;-70
2022/07/24 01:41:55;;;;;;;;;10.33;9.33;;;;;24.12;52.79;101672.00;5095244;27;45701;-70
2022/07/24 01:44:20;;;;;;;;;10.33;10.00;;;;;24.04;52.39;101655.44;5075061;27;45492;-69
2022/07/24 01:46:45;;;;;;;;;10.67;10.67;;;;;24.07;52.99;101664.22;5074129;27;46361;-70
2022/07/24 01:49:11;;;;;;;;;9.00;8.33;;;;;24.05;52.78;101666.22;5092386;27;45449;-70
2022/07/24 01:51:37;;;;;;;;;8.67;7.33;;;;;24.04;52.94;101669.91;5090290;27;45593;-70
2022/07/24 01:54:02;;;;;;;;;10.67;10.67;;;;;24.04;52.43;101658.16;5092333;27;45696;-70
2022/07/24 01:56:32;;;;;;;;;10.00;10.00;;;;;24.01;52.92;101657.41;5091915;27;45587;-70
2022/07/24 01:58:57;;;;;;;;;12.67;9.00;;;;;24.03;52.42;101660.03;5092148;27;46529;-70
2022/07/24 02:01:23;;;;;;;;;10.33;9.67;;;;;24.01;52.91;101662.88;5094777;27;46926;-70
2022/07/24 02:03:48;;;;;;;;;13.00;10.00;;;;;23.90;52.75;101641.13;5085513;27;45498;-70
2022/07/24 02:06:15;;;;;;;;;12.67;10.00;;;;;23.98;52.55;101663.13;5069300;27;45680;-70
2022/07/24 02:08:40;;;;;;;;;11.67;8.67;;;;;23.99;52.51;101656.69;5067450;27;45717;-70
2022/07/24 02:11:06;;;;;;;;;9.33;7.67;;;;;23.98;52.96;101654.97;5038742;28;45682;-70
2022/07/24 02:13:31;;;;;;;;;11.00;11.00;;;;;23.95;53.18;101649.78;5057852;28;45507;-70
2022/07/24 02:15:57;;;;;;;;;10.00;10.00;;;;;23.96;52.77;101639.75;5047765;28;45513;-70
2022/07/24 02:18:23;;;;;;;;;11.33;11.00;;;;;23.97;53.35;101645.06;5057968;28;47530;-70
2022/07/24 02:20:49;;;;;;;;;16.00;12.33;;;;;23.97;52.71;101639.59;5052675;28;45656;-69
2022/07/24 02:23:17;;;;;;;;;10.67;10.67;;;;;23.96;52.81;101646.06;5040246;28;45511;-69
2022/07/24 02:25:47;;;;;;;;;16.33;12.00;;;;;23.95;52.82;101638.91;5051069;28;45464;-68
2022/07/24 02:28:13;;;;;;;;;13.00;11.33;;;;;23.94;53.44;101623.53;5040214;28;45673;-70
2022/07/24 02:30:38;;;;;;;;;13.00;13.00;;;;;23.95;52.83;101630.72;5050904;28;45455;-69
2022/07/24 02:33:04;;;;;;;;;14.33;12.67;;;;;23.94;53.18;101633.56;5048698;28;45473;-69
2022/07/24 02:35:29;;;;;;;;;14.00;13.00;;;;;23.90;52.98;101630.25;5043006;28;45354;-70
2022/07/24 02:37:55;;;;;;;;;16.67;15.67;;;;;23.91;52.97;101622.97;5051358;28;45914;-70
2022/07/24 02:40:20;;;;;;;;;15.33;13.67;;;;;23.90;53.34;101629.38;5051709;28;45593;-69
2022/07/24 02:42:45;;;;;;;;;11.33;11.33;;;;;23.90;53.49;101632.97;5049496;28;45489;-71
2022/07/24 02:45:11;;;;;;;;;17.67;13.67;;;;;23.90;52.87;101624.78;5043152;28;45381;-71
2022/07/24 02:47:50;;;;;;;;;13.33;12.00;;;;;23.89;53.18;101617.63;5044622;28;47448;-70
2022/07/24 02:50:16;;;;;;;;;13.00;13.00;;;;;23.90;53.53;101615.78;5050587;28;45514;-70
2022/07/24 02:52:42;;;;;;;;;10.67;10.33;;;;;23.84;53.44;101616.31;5049618;28;45576;-70
2022/07/24 02:55:08;;;;;;;;;11.00;8.67;;;;;23.88;53.67;101609.59;5044074;28;45611;-70
2022/07/24 02:57:34;;;;;;;;;11.33;11.33;;;;;23.87;53.19;101616.03;5047175;28;46139;-70
2022/07/24 02:59:59;;;;;;;;;12.67;10.33;;;;;23.80;53.09;101597.50;5051363;28;45688;-71
2022/07/24 03:02:24;;;;;;;;;13.33;12.00;;;;;23.83;52.97;101600.97;5039099;28;45607;-70
2022/07/24 03:04:50;;;;;;;;;12.33;10.33;;;;;23.80;53.40;101602.94;5057477;28;45385;-70
2022/07/24 03:07:15;;;;;;;;;12.00;11.00;;;;;23.79;53.38;101589.50;5061745;27;48159;-70
2022/07/24 03:09:40;;;;;;;;;13.00;10.67;;;;;23.77;52.88;101589.59;5096556;27;45579;-70
2022/07/24 03:12:06;;;;;;;;;11.33;9.67;;;;;23.82;53.08;101596.53;5096218;27;45631;-74
2022/07/24 03:14:32;;;;;;;;;10.00;10.00;;;;;23.81;53.40;101592.91;5081370;27;45390;-74
2022/07/24 03:16:57;;;;;;;;;14.67;11.00;;;;;23.82;52.62;101604.69;5098582;27;46486;-74
2022/07/24 03:19:22;;;;;;;;;12.00;12.00;;;;;23.81;52.46;101603.81;5096907;27;45462;-74
2022/07/24 03:21:47;;;;;;;;;8.00;7.00;;;;;23.82;52.97;101601.97;5095619;27;46470;-74
2022/07/24 03:24:13;;;;;;;;;11.33;11.33;;;;;23.80;52.78;101607.53;5097826;27;45430;-74
2022/07/24 03:26:38;;;;;;;;;9.67;9.00;;;;;23.79;52.31;101603.09;5080082;27;47177;-75
2022/07/24 03:29:04;;;;;;;;;11.00;10.00;;;;;23.74;52.97;101600.78;5098260;27;45936;-74
2022/07/24 03:31:29;;;;;;;;;9.00;9.00;;;;;23.77;52.80;101603.22;5096833;27;45553;-74
2022/07/24 03:33:54;;;;;;;;;9.67;9.00;;;;;23.78;52.68;101601.34;5098096;27;45465;-74
2022/07/24 03:36:19;;;;;;;;;10.67;9.00;;;;;23.77;52.86;101597.78;5098072;27;45520;-74
2022/07/24 03:38:45;;;;;;;;;11.00;10.00;;;;;23.76;52.47;101604.22;5095975;27;45506;-74
2022/07/24 03:41:10;;;;;;;;;6.00;6.00;;;;;23.77;52.59;101595.06;5098220;27;45456;-74
2022/07/24 03:43:35;;;;;;;;;9.00;8.67;;;;;23.67;52.76;101585.94;5098714;27;45506;-74
2022/07/24 03:46:01;;;;;;;;;8.00;8.00;;;;;23.71;52.80;101594.69;5097764;27;46143;-75
2022/07/24 03:48:26;;;;;;;;;10.00;9.00;;;;;23.69;52.49;101583.06;5095406;27;45523;-74
2022/07/24 03:50:51;;;;;;;;;9.67;8.33;;;;;23.73;52.65;101604.44;5070825;27;45512;-74
2022/07/24 03:53:17;;;;;;;;;10.00;8.33;;;;;23.74;52.27;101599.88;5098642;27;45508;-74
2022/07/24 03:55:42;;;;;;;;;11.00;9.33;;;;;23.68;52.86;101587.66;5097736;27;47016;-74
2022/07/24 03:58:08;;;;;;;;;9.33;8.00;;;;;23.66;52.48;101580.63;5095173;27;45537;-74
2022/07/24 04:00:33;;;;;;;;;10.00;8.00;;;;;23.70;52.98;101591.09;5110115;27;45546;-74
2022/07/24 04:02:58;;;;;;;;;9.00;9.00;;;;;23.65;52.38;101587.91;5098192;27;45623;-75
2022/07/24 04:05:24;;;;;;;;;8.67;8.33;;;;;23.65;52.33;101593.38;5095033;27;46083;-74
2022/07/24 04:07:49;;;;;;;;;6.33;6.33;;;;;23.62;52.40;101587.31;5097740;27;45465;-75
2022/07/24 04:10:14;;;;;;;;;11.00;9.33;;;;;23.68;52.85;101609.41;5097796;27;45423;-70
2022/07/24 04:12:40;;;;;;;;;11.00;9.00;;;;;23.67;52.71;101609.53;5098015;27;45549;-70
2022/07/24 04:15:05;;;;;;;;;9.00;8.00;;;;;23.64;52.70;101610.66;5076861;27;46448;-70
2022/07/24 04:17:31;;;;;;;;;8.67;7.00;;;;;23.61;52.90;101605.50;5095422;27;45537;-70
2022/07/24 04:19:56;;;;;;;;;10.00;8.67;;;;;23.54;53.63;101598.84;5097845;27;45315;-70
2022/07/24 04:22:22;;;;;;;;;8.67;8.67;;;;;23.54;53.49;101604.28;5061567;27;45458;-70
2022/07/24 04:24:47;;;;;;;;;11.67;8.67;;;;;23.51;53.29;101599.13;5078892;27;46177;-70
2022/07/24 04:27:12;;;;;;;;;11.00;9.00;;;;;23.45;53.23;101596.91;5097566;27;45446;-70
2022/07/24 04:29:38;;;;;;;;;9.33;9.00;;;;;23.46;53.49;101599.50;5097257;27;45505;-70
2022/07/24 04:32:03;;;;;;;;;9.00;9.00;;;;;23.37;54.07;101590.25;5097768;27;45813;-70
2022/07/24 04:34:29;;;;;;;;;6.33;6.33;;;;;23.42;53.91;101603.47;5096507;27;47321;-70
2022/07/24 04:36:54;;;;;;;;;12.00;10.33;;;;;23.42;54.15;101603.47;5097053;27;45527;-70
2022/07/24 04:39:19;;;;;;;;;9.00;9.00;;;;;23.15;54.42;101554.97;5095339;27;45558;-70
2022/07/24 04:41:45;;;;;;;;;10.67;10.67;;;;;23.41;54.07;101593.56;5071056;28;46010;-70
2022/07/24 04:44:10;;;;;;;;;13.67;9.00;;;;;23.44;54.36;101597.91;5090915;27;46539;-70
2022/07/24 04:46:36;;;;;;;;;10.33;8.67;;;;;23.44;53.57;101596.06;5097232;27;45509;-70
2022/07/24 04:49:01;;;;;;;;;12.33;9.67;;;;;23.43;53.73;101597.03;5097761;27;45438;-70
2022/07/24 04:51:26;;;;;;;;;10.00;10.00;;;;;23.46;53.62;101604.06;5092300;27;45440;-70
2022/07/24 04:53:55;;;;;;;;;12.67;11.33;;;;;23.38;53.85;101589.25;5096632;27;46301;-70
2022/07/24 04:56:21;;;;;;;;;10.00;9.00;;;;;23.46;53.82;101596.78;5096818;27;45520;-70
2022/07/24 04:58:47;;;;;;;;;11.00;10.00;;;;;23.47;54.47;101597.66;5097145;27;45378;-70
2022/07/24 05:01:13;;;;;;;;;11.67;11.33;;;;;23.49;53.90;101601.09;5097994;27;45577;-70
2022/07/24 05:03:39;;;;;;;;;11.33;8.67;;;;;23.51;54.18;101604.56;5096690;27;46132;-70
2022/07/24 05:06:05;;;;;;;;;13.67;10.00;;;;;23.52;54.19;101595.41;5096731;27;45473;-70
2022/07/24 05:08:30;;;;;;;;;12.00;12.00;;;;;23.53;54.34;101597.09;5094729;27;45468;-70
2022/07/24 05:10:56;;;;;;;;;12.00;11.33;;;;;23.49;54.48;101592.94;5095902;27;45537;-74
2022/07/24 05:13:21;;;;;;;;;12.67;10.67;;;;;23.55;54.40;101601.47;5094807;27;46151;-74
2022/07/24 05:15:46;;;;;;;;;15.33;13.00;;;;;23.57;54.43;101601.31;5094873;27;45789;-74
2022/07/24 05:18:12;;;;;;;;;15.33;14.00;;;;;23.59;54.45;101602.91;5081639;27;45484;-74
2022/07/24 05:20:37;;;;;;;;;10.67;10.33;;;;;23.59;53.90;101599.31;5096938;27;45512;-74
2022/07/24 05:23:03;;;;;;;;;12.67;12.00;;;;;23.62;54.40;101606.34;5094078;27;46083;-74
2022/07/24 05:25:28;;;;;;;;;12.67;11.00;;;;;23.59;54.43;101600.19;5095132;27;45479;-74
2022/07/24 05:27:53;;;;;;;;;13.67;10.00;;;;;23.63;54.43;101599.94;5096873;27;45452;-74
2022/07/24 05:30:19;;;;;;;;;17.67;13.00;;;;;23.66;53.85;101596.94;5096798;27;45526;-74
2022/07/24 05:32:44;;;;;;;;;15.67;14.00;;;;;23.68;54.50;101603.97;5089863;27;47212;-74
2022/07/24 05:35:09;;;;;;;;;11.00;10.67;;;;;23.63;54.00;101594.50;5086408;27;45511;-75
2022/07/24 05:37:35;;;;;;;;;10.67;10.67;;;;;23.67;53.94;101595.94;5096273;27;46530;-73
2022/07/24 05:40:00;;;;;;;;;16.67;15.33;;;;;23.73;54.18;101598.13;5095627;27;45387;-74
2022/07/24 05:42:26;;;;;;;;;15.67;13.33;;;;;23.77;54.40;101603.22;5096165;27;46304;-74
2022/07/24 05:44:51;;;;;;;;;11.33;11.33;;;;;23.79;53.56;101598.50;5096373;27;45489;-74
2022/07/24 05:47:16;;;;;;;;;12.33;12.33;;;;;23.78;53.94;101593.19;5096465;27;45735;-74
2022/07/24 05:49:42;;;;;;;;;11.33;11.00;;;;;23.84;53.42;101599.97;5093217;27;45536;-74
2022/07/24 05:52:07;;;;;;;;;15.00;13.33;;;;;23.86;53.29;101595.25;5094047;27;45515;-74
2022/07/24 05:54:33;;;;;;;;;10.67;9.67;;;;;23.91;53.50;101595.72;5096229;27;45755;-74
2022/07/24 05:56:58;;;;;;;;;14.33;13.00;;;;;23.90;53.28;101591.25;5093684;27;45975;-74
2022/07/24 05:59:23;;;;;;;;;13.00;11.67;;;;;23.99;53.47;101596.78;5093924;27;45628;-74
2022/07/24 06:01:49;;;;;;;;;9.33;8.33;;;;;24.04;53.01;101598.22;5094542;27;46300;-74
2022/07/24 06:04:14;;;;;;;;;15.33;13.33;;;;;24.08;53.43;101602.44;5096194;27;45654;-74
2022/07/24 06:06:39;;;;;;;;;11.33;7.67;;;;;24.10;53.41;101597.72;5095112;27;45531;-74
2022/07/24 06:09:05;;;;;;;;;13.00;11.33;;;;;24.12;53.06;101591.13;5077635;27;45492;-75
2022/07/24 06:11:30;;;;;;;;;11.67;9.67;;;;;24.16;52.58;101587.16;5095904;27;45979;-74
2022/07/24 06:13:55;;;;;;;;;12.00;9.33;;;;;24.20;52.68;101594.03;5093413;27;45779;-75
2022/07/24 06:16:21;;;;;;;;;6.00;6.00;;;;;24.23;52.47;101593.78;5095113;27;45531;-75
2022/07/24 06:18:46;;;;;;;;;10.67;10.00;;;;;24.16;52.10;101576.25;5093738;27;45480;-74
2022/07/24 06:21:11;;;;;;;;;9.33;7.67;;;;;24.26;51.35;101589.06;5093368;27;46168;-74
2022/07/24 06:23:37;;;;;;;;;9.00;7.33;;;;;24.31;51.78;101587.63;5094443;27;45687;-74
2022/07/24 06:26:02;;;;;;;;;10.33;9.33;;;;;24.33;51.27;101593.81;5093708;27;45532;-75
2022/07/24 06:28:28;;;;;;;;;10.33;9.33;;;;;24.35;51.62;101586.38;5100006;27;45489;-74
2022/07/24 06:30:57;;;;;;;;;13.67;12.33;;;;;24.39;51.15;101578.78;5095620;27;46928;-73
2022/07/24 06:33:22;;;;;;;;;9.00;8.67;;;;;24.44;51.36;101579.22;5098745;27;45558;-75
2022/07/24 06:35:47;;;;;;;;;13.67;11.00;;;;;24.48;51.49;101577.13;5094792;27;45538;-75
2022/07/24 06:38:13;;;;;;;;;10.00;8.00;;;;;24.50;51.24;101566.97;5095337;27;45424;-75
2022/07/24 06:40:38;;;;;;;;;10.33;9.00;;;;;24.54;50.68;101576.59;5094012;27;46593;-75
2022/07/24 06:43:04;;;;;;;;;9.00;9.00;;;;;24.58;51.26;101575.28;5079921;27;45487;-76
2022/07/24 06:45:32;;;;;;;;;42.00;34.33;;;;;24.52;51.05;101557.63;5080079;27;45797;-78
2022/07/24 06:48:00;;;;;;;;;8.67;8.67;;;;;24.66;50.93;101574.63;5089901;27;45566;-78
2022/07/24 06:50:27;;;;;;;;;10.00;9.67;;;;;24.62;51.00;101561.25;5087408;27;47120;-77
2022/07/24 06:52:52;;;;;;;;;9.33;9.33;;;;;24.64;51.09;101561.13;5071563;27;46008;-77
2022/07/24 06:55:18;;;;;;;;;10.67;10.67;;;;;24.70;50.41;101568.75;5095334;27;45880;-77
2022/07/24 06:57:43;;;;;;;;;14.33;11.00;;;;;24.73;50.29;101579.38;5079706;27;45684;-77
2022/07/24 07:00:09;;;;;;;;;10.67;10.67;;;;;24.76;50.65;101572.78;5095863;27;45487;-77
2022/07/24 07:02:35;;;;;;;;;11.33;10.00;;;;;24.71;50.63;101556.84;5095820;27;45902;-77
2022/07/24 07:05:00;;;;;;;;;13.00;11.67;;;;;24.82;50.53;101573.09;5096111;27;45541;-78
2022/07/24 07:07:26;;;;;;;;;9.00;8.67;;;;;24.86;50.52;101576.38;5096857;27;45563;-74
2022/07/24 07:09:51;;;;;;;;;10.67;10.67;;;;;24.86;50.79;101573.66;5098065;27;46650;-76
2022/07/24 07:12:16;;;;;;;;;13.67;12.67;;;;;24.93;50.50;101584.88;5089618;27;45506;-70
2022/07/24 07:14:42;;;;;;;;;15.00;9.00;;;;;24.97;50.07;101578.13;5081932;27;45616;-70
2022/07/24 07:17:07;;;;;;;;;12.33;9.00;;;;;25.01;50.38;101585.03;5098100;27;45503;-71
2022/07/24 07:19:33;;;;;;;;;10.67;8.67;;;;;24.90;50.30;101558.75;5095700;27;46231;-70
2022/07/24 07:21:58;;;;;;;;;13.33;11.33;;;;;25.09;50.05;101576.16;5095262;27;45830;-70
2022/07/24 07:24:23;;;;;;;;;10.00;10.00;;;;;25.13;49.82;101575.72;5078852;27;45671;-70
2022/07/24 07:26:49;;;;;;;;;13.00;11.33;;;;;25.18;49.92;101564.41;5084555;27;45825;-72
2022/07/24 07:29:14;;;;;;;;;13.33;11.00;;;;;25.06;50.09;101544.56;5093070;27;50791;-70
2022/07/24 07:31:39;;;;;;;;;11.33;11.33;;;;;25.25;49.82;101563.69;5097304;27;45531;-70
2022/07/24 07:34:05;;;;;;;;;10.33;10.33;;;;;25.30;49.74;101562.41;5094640;27;45465;-70
2022/07/24 07:36:30;;;;;;;;;13.67;13.67;;;;;25.31;50.28;101556.81;5092228;27;45568;-70
2022/07/24 07:38:57;;;;;;;;;12.33;11.67;;;;;25.39;50.06;101565.13;5072221;27;46052;-70
2022/07/24 07:41:23;;;;;;;;;13.00;12.67;;;;;25.44;49.66;101561.97;5092244;27;45340;-70
2022/07/24 07:43:48;;;;;;;;;13.00;10.00;;;;;25.48;49.82;101566.16;5094571;27;45397;-70
2022/07/24 07:46:14;;;;;;;;;13.00;12.00;;;;;25.53;49.95;101563.84;5091648;27;45505;-70
2022/07/24 07:48:40;;;;;;;;;12.00;12.00;;;;;25.56;49.05;101565.41;5091402;27;46270;-70
2022/07/24 07:51:05;;;;;;;;;12.33;12.33;;;;;25.61;49.21;101558.50;5081875;27;45519;-73
2022/07/24 07:53:31;;;;;;;;;12.67;11.33;;;;;25.59;49.58;101549.63;5090960;27;45535;-71
2022/07/24 07:55:56;;;;;;;;;12.00;11.33;;;;;25.67;49.31;101552.47;5075640;27;45530;-71
2022/07/24 07:58:26;;;;;;;;;16.00;11.33;;;;;25.74;49.02;101555.50;5085547;27;46114;-71
2022/07/24 08:00:52;;;;;;;;;14.67;12.00;;;;;25.77;49.35;101555.19;5094622;27;45545;-71
2022/07/24 08:03:18;;;;;;;;;10.67;10.67;;;;;25.73;49.10;101534.66;5095516;27;45481;-70
2022/07/24 08:05:43;;;;;;;;;15.00;13.67;;;;;25.87;48.92;101544.25;5096738;27;46209;-70
2022/07/24 08:08:08;;;;;;;;;12.00;9.00;;;;;25.89;48.87;101534.94;5097096;27;45450;-70
2022/07/24 08:10:34;;;;;;;;;13.33;11.67;;;;;26.00;49.32;101539.34;5078261;27;45753;-73
2022/07/24 08:12:59;;;;;;;;;13.00;12.00;;;;;26.01;48.88;101532.91;5097047;27;45670;-72
2022/07/24 08:15:24;;;;;;;;;12.33;10.33;;;;;26.10;48.36;101537.44;5094782;27;45530;-73
2022/07/24 08:17:54;;;;;;;;;13.00;11.33;;;;;25.99;48.14;101509.44;5096735;27;45485;-73
2022/07/24 08:20:20;;;;;;;;;12.33;12.00;;;;;26.20;47.92;101542.91;5092577;27;45612;-72
2022/07/24 08:22:47;;;;;;;;;13.67;12.67;;;;;26.23;47.60;101539.84;5088290;27;45461;-72
2022/07/24 08:25:12;;;;;;;;;10.33;10.33;;;;;26.26;47.69;101531.34;5061926;27;45526;-72
2022/07/24 08:27:38;;;;;;;;;13.00;12.00;;;;;26.33;47.73;101539.81;5089582;27;46208;-73
2022/07/24 08:30:07;;;;;;;;;12.33;12.33;;;;;26.40;48.45;101540.91;5091054;27;46472;-73
2022/07/24 08:32:33;;;;;;;;;15.67;13.33;;;;;26.46;47.60;101534.84;5062811;27;45645;-72
2022/07/24 08:34:59;;;;;;;;;13.67;12.00;;;;;26.52;47.34;101536.13;5090360;27;45633;-73
2022/07/24 08:37:24;;;;;;;;;11.33;11.00;;;;;26.58;47.08;101535.53;5079820;27;47298;-72
2022/07/24 08:39:49;;;;;;;;;11.67;11.67;;;;;26.65;46.72;101530.34;5089929;27;45438;-73
2022/07/24 08:42:15;;;;;;;;;8.67;8.67;;;;;26.71;46.97;101525.13;5077411;27;45598;-72
2022/07/24 08:44:40;;;;;;;;;11.00;11.00;;;;;26.79;46.88;101527.06;5091890;27;45830;-74
2022/07/24 08:47:10;;;;;;;;;9.33;9.33;;;;;26.88;45.75;101520.69;5088654;27;46143;-72
2022/07/24 08:49:36;;;;;;;;;9.33;7.67;;;;;27.04;45.11;101521.84;5090222;27;45623;-73
2022/07/24 08:52:04;;;;;;;;;13.67;11.67;;;;;27.72;45.10;101516.66;5088313;27;45534;-73
2022/07/24 08:54:32;;;;;;;;;8.33;8.33;;;;;31.51;37.63;101508.88;5078151;27;45767;-73
2022/07/24 08:56:58;;;;;;;;;8.33;7.67;;;;;33.09;35.22;101498.56;5088541;27;46742;-73
2022/07/24 08:59:24;;;;;;;;;8.00;8.00;;;;;35.07;30.75;101486.09;5087810;27;45393;-73
2022/07/24 09:01:50;;;;;;;;;7.00;7.00;;;;;35.57;30.18;101492.13;5083986;27;46292;-74
2022/07/24 09:04:35;;;;;;;;;8.00;8.00;;;;;38.11;27.87;101491.56;5087970;27;45512;-73
2022/07/24 09:07:03;;;;;;;;;9.67;8.33;;;;;40.29;23.47;101499.50;5084953;27;47712;-73
2022/07/24 09:09:28;;;;;;;;;8.33;8.33;;;;;41.86;23.00;101499.84;5090372;27;45549;-74
2022/07/24 09:12:12;;;;;;;;;9.00;9.00;;;;;43.36;21.45;101492.06;5078799;27;45453;-74
2022/07/24 09:14:40;;;;;;;;;9.67;9.00;;;;;44.42;20.06;101502.28;5082587;27;45692;-72
2022/07/24 09:17:08;;;;;;;;;10.67;8.00;;;;;45.37;18.40;101501.03;5076122;27;46764;-73
2022/07/24 09:19:57;;;;;;;;;9.33;9.33;;;;;46.31;18.02;101500.53;5090772;27;45530;-74
2022/07/24 09:22:23;;;;;;;;;11.00;9.67;;;;;47.08;17.08;101495.28;5087659;27;45734;-75
2022/07/24 09:25:07;;;;;;;;;9.00;9.00;;;;;47.88;16.87;101498.81;5094866;27;45496;-72
2022/07/24 09:27:36;;;;;;;;;7.67;7.67;;;;;48.56;15.87;101501.28;5076902;27;46657;-74
2022/07/24 09:30:05;;;;;;;;;8.33;8.33;;;;;49.11;15.48;101495.13;5087518;27;45594;-74
2022/07/24 09:32:30;;;;;;;;;10.67;10.67;;;;;49.71;14.99;101493.47;5092325;27;45458;-74
2022/07/24 09:34:56;;;;;;;;;9.00;9.00;;;;;50.08;14.01;101486.78;5093887;27;45522;-74
2022/07/24 09:37:22;;;;;;;;;6.33;6.33;;;;;50.44;13.98;101478.34;5086234;27;46479;-74
2022/07/24 09:39:47;;;;;;;;;6.00;6.00;;;;;50.85;13.50;101471.69;5090925;27;45512;-76
2022/07/24 09:42:13;;;;;;;;;6.00;6.00;;;;;51.24;13.13;101469.28;5073623;27;45615;-74
2022/07/24 09:44:39;;;;;;;;;7.33;7.33;;;;;51.60;12.83;101480.53;5090901;27;45597;-73
2022/07/24 09:47:07;;;;;;;;;6.33;5.67;;;;;51.85;12.55;101467.59;5092373;27;47075;-74
2022/07/24 09:49:34;;;;;;;;;8.00;7.67;;;;;52.03;12.33;101453.41;5090488;27;45993;-74
2022/07/24 09:52:10;;;;;;;;;6.00;6.00;;;;;52.32;12.19;101436.56;5095325;27;46210;-74
2022/07/24 09:54:50;;;;;;;;;7.00;7.00;;;;;52.66;12.42;101468.22;5086227;27;45487;-74
2022/07/24 09:57:15;;;;;;;;;6.33;6.33;;;;;52.82;12.10;101463.72;5064882;27;48331;-72
2022/07/24 09:59:45;;;;;;;;;5.33;5.33;;;;;52.90;11.50;101459.22;5086938;27;45875;-72
2022/07/24 10:02:13;;;;;;;;;8.00;6.67;;;;;52.92;11.70;101463.38;5069043;27;45860;-72
2022/07/24 10:04:42;;;;;;;;;8.33;8.00;;;;;53.06;11.80;101457.50;5094333;27;45955;-72
2022/07/24 10:07:10;;;;;;;;;8.00;8.00;;;;;53.14;12.11;101453.81;5087630;27;46400;-72
2022/07/24 10:09:35;;;;;;;;;8.00;8.00;;;;;53.19;11.15;101461.31;5085879;27;45549;-75
2022/07/24 10:12:03;;;;;;;;;7.00;6.33;;;;;53.15;10.43;101452.59;5084583;27;46752;-70
2022/07/24 10:14:29;;;;;;;;;6.00;6.00;;;;;52.84;10.99;101443.47;5081553;27;45576;-70
2022/07/24 10:17:05;;;;;;;;;7.00;7.00;;;;;52.65;11.75;101443.78;5074515;27;46493;-70
2022/07/24 10:19:39;;;;;;;;;8.00;8.00;;;;;52.60;12.02;101444.81;5077662;27;45418;-70
2022/07/24 10:22:10;;;;;;;;;6.33;6.33;;;;;52.39;11.82;101438.91;5085849;27;45562;-70
2022/07/24 10:24:53;;;;;;;;;6.33;6.33;;;;;52.06;11.33;101444.22;5076849;27;45557;-70
2022/07/24 10:27:36;;;;;;;;;7.67;6.33;;;;;51.50;11.94;101443.88;5088988;27;45507;-70
2022/07/24 10:30:10;;;;;;;;;4.67;4.67;;;;;51.20;11.89;101443.53;5072783;27;45473;-70
2022/07/24 10:32:37;;;;;;;;;7.33;7.33;;;;;50.78;12.28;101436.38;5088521;27;45732;-70
2022/07/24 10:35:14;;;;;;;;;7.00;6.00;;;;;50.50;12.98;101427.13;5088607;27;45581;-71
2022/07/24 10:38:14;;;;;;;;;8.33;7.33;;;;;50.06;12.69;101438.03;5093488;27;45807;-79
2022/07/24 10:40:45;;;;;;;;;4.00;4.00;;;;;49.54;13.56;101426.91;5066763;27;45490;-75
2022/07/24 10:43:19;;;;;;;;;4.67;4.67;;;;;49.19;14.02;101426.41;5085300;27;45433;-76
2022/07/24 10:46:05;;;;;;;;;5.00;5.00;;;;;48.66;12.55;101421.13;5081750;27;45487;-76
2022/07/24 10:48:35;;;;;;;;;4.67;4.67;;;;;48.09;14.10;101391.94;5076814;27;45854;-77
2022/07/24 10:51:01;;;;;;;;;6.00;6.00;;;;;47.44;14.50;101379.19;5087107;27;45436;-76
2022/07/24 10:53:42;;;;;;;;;5.00;4.33;;;;;46.79;14.78;101385.19;5090856;27;45774;-77
2022/07/24 10:56:26;;;;;;;;;6.00;6.00;;;;;46.11;15.94;101381.09;5079437;27;45533;-76
2022/07/24 10:59:01;;;;;;;;;7.33;6.00;;;;;45.70;16.32;101372.81;5084477;27;46076;-78
2022/07/24 11:01:31;;;;;;;;;5.33;5.33;;;;;45.22;16.54;101378.03;5094443;27;45428;-76
2022/07/24 11:03:58;;;;;;;;;6.00;6.00;;;;;44.73;17.30;101374.94;5092346;27;46176;-76
2022/07/24 11:06:49;;;;;;;;;8.33;6.00;;;;;44.10;17.37;101369.50;5094793;27;45558;-78
2022/07/24 11:09:16;;;;;;;;;6.67;6.67;;;;;43.56;16.82;101359.41;5087554;27;46578;-77
2022/07/24 11:12:04;;;;;;;;;6.67;6.67;;;;;42.73;18.64;101357.97;5092286;27;45492;-77
2022/07/24 11:17:49;;;;;;;;;6.67;6.67;;;;;41.10;20.10;101351.16;5097689;27;45538;-76
2022/07/24 11:20:17;;;;;;;;;8.00;8.00;;;;;40.48;19.64;101350.13;5078001;27;46178;-77